Time;durP1;ratioP1;P1;durP2;ratioP2;P2;SDS_P1;SDS_P2;PMS_P1;PMS_P2;Temp;Humidity;BMP_temperature;BMP_pressure;BME280_temperature;BME280_humidity;BME280_pressure;Samples;Min_cycle;Max_cycle;Signal;HPM_P1;HPM_P2
2021/03/28 00:05:24;;;;;;;;;98.00;79.00;;;;;;;;12006465;29;8864;-50
2021/03/28 00:11:26;;;;;;;;;91.00;70.67;;;;;;;;12031430;29;8928;-51
2021/03/28 00:17:48;;;;;;;;;98.00;80.33;;;;;;;;12059430;29;8854;-47
2021/03/28 00:23:54;;;;;;;;;92.00;71.67;;;;;;;;12016414;29;8880;-51
2021/03/28 00:30:05;;;;;;;;;94.00;75.67;;;;;;;;12013671;29;8872;-49
2021/03/28 00:36:12;;;;;;;;;92.33;75.00;;;;;;;;12015840;29;8960;-51
2021/03/28 00:42:25;;;;;;;;;92.00;72.00;;;;;;;;12012404;29;8867;-50
2021/03/28 00:48:29;;;;;;;;;92.67;72.33;;;;;;;;12013851;29;8894;-49
2021/03/28 00:54:50;;;;;;;;;93.33;76.67;;;;;;;;12011252;29;8991;-49
2021/03/28 01:00:58;;;;;;;;;91.67;70.33;;;;;;;;12026145;29;9013;-48
2021/03/28 01:07:29;;;;;;;;;91.00;72.00;;;;;;;;12012519;29;8915;-48
2021/03/28 01:13:53;;;;;;;;;84.00;67.33;;;;;;;;12011418;29;8891;-50
2021/03/28 01:20:07;;;;;;;;;87.67;69.67;;;;;;;;12012668;29;8895;-49
2021/03/28 01:26:30;;;;;;;;;82.00;64.67;;;;;;;;12011294;29;8880;-53
2021/03/28 01:33:00;;;;;;;;;83.75;67.00;;;;;;;;12012612;29;8871;-48
2021/03/28 01:39:20;;;;;;;;;86.50;66.00;;;;;;;;12007770;29;8896;-51
2021/03/28 01:45:34;;;;;;;;;88.00;66.67;;;;;;;;12012495;29;8887;-50
2021/03/28 01:52:10;;;;;;;;;85.33;66.33;;;;;;;;12009416;29;8860;-51
2021/03/28 01:58:42;;;;;;;;;84.75;67.25;;;;;;;;11986393;29;9692;-51
2021/03/28 02:05:17;;;;;;;;;86.00;68.00;;;;;;;;12009376;29;9733;-47
2021/03/28 02:11:43;;;;;;;;;85.50;65.75;;;;;;;;12010571;29;8860;-49
2021/03/28 02:18:00;;;;;;;;;87.00;69.00;;;;;;;;12009117;29;9623;-50
2021/03/28 02:24:26;;;;;;;;;88.50;69.50;;;;;;;;12010290;29;8978;-48
2021/03/28 02:30:52;;;;;;;;;87.00;69.67;;;;;;;;12008201;29;8876;-52
2021/03/28 02:37:07;;;;;;;;;92.67;69.00;;;;;;;;12010646;29;8970;-48
2021/03/28 02:43:26;;;;;;;;;97.67;82.00;;;;;;;;12008527;29;8860;-50
2021/03/28 02:49:40;;;;;;;;;95.67;75.67;;;;;;;;12009864;29;8868;-50
2021/03/28 02:56:18;;;;;;;;;92.33;73.00;;;;;;;;12007726;29;8867;-51
2021/03/28 03:02:48;;;;;;;;;92.33;74.33;;;;;;;;12035899;29;8869;-52
2021/03/28 03:09:20;;;;;;;;;100.33;82.00;;;;;;;;12051800;29;8916;-48
2021/03/28 03:15:31;;;;;;;;;98.33;75.33;;;;;;;;12054107;29;8860;-49
2021/03/28 03:22:10;;;;;;;;;100.00;84.00;;;;;;;;12051804;29;8870;-48
2021/03/28 03:28:30;;;;;;;;;101.33;83.00;;;;;;;;12052720;29;8895;-51
2021/03/28 03:34:45;;;;;;;;;103.00;80.67;;;;;;;;12050514;29;9654;-49
2021/03/28 03:40:58;;;;;;;;;105.33;90.67;;;;;;;;12051901;29;8858;-50
2021/03/28 03:47:10;;;;;;;;;108.00;92.00;;;;;;;;12053772;29;9727;-49
2021/03/28 03:53:24;;;;;;;;;104.67;93.67;;;;;;;;12060217;29;8866;-50
2021/03/28 03:59:37;;;;;;;;;115.00;97.67;;;;;;;;12061517;29;8899;-52
2021/03/28 04:05:54;;;;;;;;;104.67;87.33;;;;;;;;12059594;29;8908;-52
2021/03/28 04:12:08;;;;;;;;;106.67;94.67;;;;;;;;12061011;29;8942;-49
2021/03/28 04:18:48;;;;;;;;;105.33;87.67;;;;;;;;12060020;29;8988;-51
2021/03/28 04:25:09;;;;;;;;;107.33;93.67;;;;;;;;12060532;29;9659;-49
2021/03/28 04:31:32;;;;;;;;;104.33;89.33;;;;;;;;12048487;29;8861;-51
2021/03/28 04:38:16;;;;;;;;;102.00;87.00;;;;;;;;12059129;29;8873;-49
2021/03/28 04:44:48;;;;;;;;;104.00;80.33;;;;;;;;12058014;29;8853;-49
2021/03/28 04:51:15;;;;;;;;;106.00;92.00;;;;;;;;12060135;29;8912;-48
2021/03/28 04:57:44;;;;;;;;;96.33;79.00;;;;;;;;12057165;29;8898;-50
2021/03/28 05:04:01;;;;;;;;;96.00;74.67;;;;;;;;12058938;29;8868;-51
2021/03/28 05:10:14;;;;;;;;;100.33;79.67;;;;;;;;12056868;29;9737;-49
2021/03/28 05:16:38;;;;;;;;;96.00;79.33;;;;;;;;12058329;29;9059;-49
2021/03/28 05:22:57;;;;;;;;;101.33;81.67;;;;;;;;12046393;29;9004;-50
2021/03/28 05:29:21;;;;;;;;;105.00;83.00;;;;;;;;12058441;29;8873;-50
2021/03/28 05:36:00;;;;;;;;;97.33;79.67;;;;;;;;12056052;29;8900;-51
2021/03/28 05:42:19;;;;;;;;;101.33;85.00;;;;;;;;12057798;29;8896;-50
2021/03/28 05:48:56;;;;;;;;;99.67;79.00;;;;;;;;12055213;29;8869;-49
2021/03/28 05:55:22;;;;;;;;;101.33;80.33;;;;;;;;12056996;29;8868;-49
2021/03/28 06:01:36;;;;;;;;;97.00;76.67;;;;;;;;12054990;29;8865;-48
2021/03/28 06:08:13;;;;;;;;;92.33;73.67;;;;;;;;12055041;29;8866;-50
2021/03/28 06:14:34;;;;;;;;;99.00;81.33;;;;;;;;12052344;29;8888;-50
2021/03/28 06:20:54;;;;;;;;;100.67;86.67;;;;;;;;12021852;29;8869;-51
2021/03/28 06:27:16;;;;;;;;;102.33;86.33;;;;;;;;12013410;29;8914;-49
2021/03/28 06:33:38;;;;;;;;;105.33;94.33;;;;;;;;12020848;29;8936;-48
2021/03/28 06:40:07;;;;;;;;;102.67;88.00;;;;;;;;12009586;29;8947;-50
2021/03/28 06:46:14;;;;;;;;;98.00;86.33;;;;;;;;12008301;29;8880;-50
2021/03/28 06:52:27;;;;;;;;;96.67;77.67;;;;;;;;12009084;29;8884;-49
2021/03/28 06:59:24;;;;;;;;;90.75;73.00;;;;;;;;12008452;29;8863;-48
2021/03/28 07:06:02;;;;;;;;;88.50;72.25;;;;;;;;12004725;29;9674;-50
2021/03/28 07:12:25;;;;;;;;;88.50;70.50;;;;;;;;12008350;29;8974;-49
2021/03/28 07:19:14;;;;;;;;;85.50;67.25;;;;;;;;12035010;29;8895;-48
2021/03/28 07:25:37;;;;;;;;;88.50;71.00;;;;;;;;12059846;29;8857;-48
2021/03/28 07:31:44;;;;;;;;;91.25;72.00;;;;;;;;12061211;29;8902;-51
2021/03/28 07:38:05;;;;;;;;;82.25;65.00;;;;;;;;12062158;29;8884;-51
2021/03/28 07:44:37;;;;;;;;;71.25;58.75;;;;;;;;12061302;29;8853;-53
2021/03/28 07:50:57;;;;;;;;;53.25;44.00;;;;;;;;12061785;29;8881;-51
2021/03/28 07:57:19;;;;;;;;;64.75;51.00;;;;;;;;12061454;29;8873;-53
2021/03/28 08:03:48;;;;;;;;;60.25;49.25;;;;;;;;12060371;29;9376;-50
2021/03/28 08:10:16;;;;;;;;;59.50;48.00;;;;;;;;12061508;29;8917;-51
2021/03/28 08:16:39;;;;;;;;;56.50;47.00;;;;;;;;12059782;29;8858;-52
2021/03/28 08:23:07;;;;;;;;;44.25;38.00;;;;;;;;12061239;29;8896;-50
2021/03/28 08:29:26;;;;;;;;;55.00;43.25;;;;;;;;12059268;29;8881;-51
2021/03/28 08:35:31;;;;;;;;;49.25;40.50;;;;;;;;12058035;29;8907;-50
2021/03/28 08:41:48;;;;;;;;;53.50;44.50;;;;;;;;12058147;29;9046;-49
2021/03/28 08:48:03;;;;;;;;;39.75;38.50;;;;;;;;12059927;29;8857;-52
2021/03/28 08:54:29;;;;;;;;;43.00;38.50;;;;;;;;12057982;29;8861;-50
2021/03/28 09:00:47;;;;;;;;;37.00;32.67;;;;;;;;12059487;29;8877;-48
2021/03/28 09:07:26;;;;;;;;;37.75;34.25;;;;;;;;12055559;29;8865;-51
2021/03/28 09:14:13;;;;;;;;;38.00;34.33;;;;;;;;12058714;29;8971;-52
2021/03/28 09:20:25;;;;;;;;;42.25;35.75;;;;;;;;12057077;29;8889;-52
2021/03/28 09:26:46;;;;;;;;;33.33;30.67;;;;;;;;12058326;29;8857;-48
2021/03/28 09:33:13;;;;;;;;;33.33;30.00;;;;;;;;12055053;29;8885;-51
2021/03/28 09:39:59;;;;;;;;;39.00;36.33;;;;;;;;12057650;29;8932;-49
2021/03/28 09:46:25;;;;;;;;;41.00;36.00;;;;;;;;12054073;29;8908;-51
2021/03/28 09:52:59;;;;;;;;;29.00;27.00;;;;;;;;12057979;29;9492;-50
2021/03/28 09:59:23;;;;;;;;;35.00;33.00;;;;;;;;12055845;29;8869;-51
2021/03/28 10:05:28;;;;;;;;;34.33;33.33;;;;;;;;12056241;29;8862;-52
2021/03/28 10:11:39;;;;;;;;;28.67;27.33;;;;;;;;12009520;29;8871;-48
2021/03/28 10:18:00;;;;;;;;;32.00;31.00;;;;;;;;12010028;29;8876;-50
2021/03/28 10:24:22;;;;;;;;;27.33;27.33;;;;;;;;12009533;29;8868;-53
2021/03/28 10:30:51;;;;;;;;;36.33;33.67;;;;;;;;12009328;29;8934;-50
2021/03/28 10:37:11;;;;;;;;;33.67;32.33;;;;;;;;12037368;29;8912;-51
2021/03/28 10:43:41;;;;;;;;;39.33;35.00;;;;;;;;12054175;29;8869;-52
2021/03/28 10:49:54;;;;;;;;;36.67;34.33;;;;;;;;12053779;29;9595;-56
2021/03/28 10:56:19;;;;;;;;;32.00;28.00;;;;;;;;12052672;29;8869;-51
2021/03/28 11:02:56;;;;;;;;;35.00;32.33;;;;;;;;12054300;29;9576;-53
2021/03/28 11:09:24;;;;;;;;;35.67;34.00;;;;;;;;12052567;29;8861;-53
2021/03/28 11:15:38;;;;;;;;;31.00;31.00;;;;;;;;12053995;29;9699;-52
2021/03/28 11:21:43;;;;;;;;;23.00;22.00;;;;;;;;12051748;29;8908;-53
2021/03/28 11:27:54;;;;;;;;;38.67;36.67;;;;;;;;12054661;29;8869;-50
2021/03/28 11:33:58;;;;;;;;;40.67;35.67;;;;;;;;12051867;29;8881;-51
2021/03/28 11:40:12;;;;;;;;;47.00;38.00;;;;;;;;12053895;29;8872;-51
2021/03/28 11:46:16;;;;;;;;;45.67;38.00;;;;;;;;12051881;29;8934;-50
2021/03/28 11:52:22;;;;;;;;;32.33;31.67;;;;;;;;12023203;29;8879;-51
2021/03/28 11:58:23;;;;;;;;;38.00;34.00;;;;;;;;12007564;29;9671;-50
2021/03/28 12:04:45;;;;;;;;;28.00;26.00;;;;;;;;12005905;29;8884;-53
2021/03/28 12:10:49;;;;;;;;;40.67;35.00;;;;;;;;12014063;29;8899;-54
2021/03/28 12:17:09;;;;;;;;;32.00;30.33;;;;;;;;12052759;29;8901;-53
2021/03/28 12:23:36;;;;;;;;;32.33;29.00;;;;;;;;12061650;29;8889;-51
2021/03/28 12:29:40;;;;;;;;;39.67;32.00;;;;;;;;12051580;29;8892;-52
2021/03/28 12:36:05;;;;;;;;;41.00;37.67;;;;;;;;12059972;29;8869;-51
2021/03/28 12:42:28;;;;;;;;;29.67;27.67;;;;;;;;12059513;29;8891;-54
2021/03/28 12:48:36;;;;;;;;;28.00;27.33;;;;;;;;12058781;29;8899;-49
2021/03/28 12:54:49;;;;;;;;;32.33;29.33;;;;;;;;12013847;29;9560;-48
2021/03/28 13:00:54;;;;;;;;;25.67;24.00;;;;;;;;12014195;29;9669;-52
2021/03/28 13:06:55;;;;;;;;;28.33;28.33;;;;;;;;12013734;29;8876;-50
2021/03/28 13:13:16;;;;;;;;;29.00;25.33;;;;;;;;12012085;29;8908;-52
2021/03/28 13:19:26;;;;;;;;;23.33;21.00;;;;;;;;12013695;29;8979;-53
2021/03/28 13:25:30;;;;;;;;;29.67;27.33;;;;;;;;12011906;29;8852;-53
2021/03/28 13:31:38;;;;;;;;;39.67;32.33;;;;;;;;12012063;29;9661;-52
2021/03/28 13:37:54;;;;;;;;;60.33;49.33;;;;;;;;12012175;29;8879;-51
2021/03/28 13:44:06;;;;;;;;;17.00;15.00;;;;;;;;12011136;29;8860;-53
2021/03/28 13:50:35;;;;;;;;;66.50;52.25;;;;;;;;12012465;29;8867;-55
2021/03/28 13:56:49;;;;;;;;;27.67;27.67;;;;;;;;12011061;29;8974;-53
2021/03/28 14:02:53;;;;;;;;;43.33;39.67;;;;;;;;12012452;29;8887;-53
2021/03/28 14:09:10;;;;;;;;;63.33;50.67;;;;;;;;12009386;29;8942;-53
2021/03/28 14:15:20;;;;;;;;;30.00;28.33;;;;;;;;12038902;29;8889;-52
2021/03/28 14:21:27;;;;;;;;;26.67;26.67;;;;;;;;12054348;29;8861;-51
2021/03/28 14:27:37;;;;;;;;;38.33;34.33;;;;;;;;12054913;29;8904;-55
2021/03/28 14:34:04;;;;;;;;;36.00;36.00;;;;;;;;12054339;29;8880;-49
2021/03/28 14:40:18;;;;;;;;;41.00;39.00;;;;;;;;12054283;29;9436;-51
2021/03/28 14:46:29;;;;;;;;;39.00;32.67;;;;;;;;12054999;29;8888;-53
2021/03/28 14:53:07;;;;;;;;;36.00;33.00;;;;;;;;12053591;29;9255;-51
2021/03/28 14:59:14;;;;;;;;;26.00;24.00;;;;;;;;12048576;29;8874;-53
2021/03/28 15:05:24;;;;;;;;;30.33;29.67;;;;;;;;12007729;29;8899;-51
2021/03/28 15:11:36;;;;;;;;;32.00;29.00;;;;;;;;12009175;29;8879;-54
2021/03/28 15:17:47;;;;;;;;;35.33;30.33;;;;;;;;12006676;29;8871;-55
2021/03/28 15:24:09;;;;;;;;;24.67;24.00;;;;;;;;12007797;29;8852;-53
2021/03/28 15:30:26;;;;;;;;;26.00;26.00;;;;;;;;12007320;29;8930;-52
2021/03/28 15:37:02;;;;;;;;;25.33;24.33;;;;;;;;12007746;29;8902;-48
2021/03/28 15:43:19;;;;;;;;;31.33;28.00;;;;;;;;12032925;29;8896;-50
2021/03/28 15:49:23;;;;;;;;;27.67;27.67;;;;;;;;12060997;29;8889;-51
2021/03/28 15:56:02;;;;;;;;;24.33;24.33;;;;;;;;12017450;29;9646;-51
2021/03/28 16:02:34;;;;;;;;;31.33;28.00;;;;;;;;12015389;29;8987;-49
2021/03/28 16:09:12;;;;;;;;;24.67;21.33;;;;;;;;12015478;29;8911;-52
2021/03/28 16:15:39;;;;;;;;;35.67;32.67;;;;;;;;12014762;29;8876;-53
2021/03/28 16:22:34;;;;;;;;;37.00;34.00;;;;;;;;12015024;29;8884;-51
2021/03/28 16:28:54;;;;;;;;;33.67;33.67;;;;;;;;12013134;29;8881;-51
2021/03/28 16:35:10;;;;;;;;;39.75;34.50;;;;;;;;12058752;29;8861;-48
2021/03/28 16:41:20;;;;;;;;;36.33;33.67;;;;;;;;12060104;29;8873;-51
2021/03/28 16:47:22;;;;;;;;;38.50;35.75;;;;;;;;12059712;29;8873;-51
2021/03/28 16:53:45;;;;;;;;;39.50;36.00;;;;;;;;12057249;29;8869;-52
2021/03/28 16:59:48;;;;;;;;;39.50;36.25;;;;;;;;12060002;29;8873;-52
2021/03/28 17:05:52;;;;;;;;;37.00;34.50;;;;;;;;12057416;29;8896;-53
2021/03/28 17:11:54;;;;;;;;;36.50;33.00;;;;;;;;12058451;29;8861;-54
2021/03/28 17:18:09;;;;;;;;;34.50;34.50;;;;;;;;12057914;29;8880;-49
2021/03/28 17:24:13;;;;;;;;;42.50;38.50;;;;;;;;12056853;29;8857;-53
2021/03/28 17:30:49;;;;;;;;;43.00;38.00;;;;;;;;12057683;29;8889;-52
2021/03/28 17:36:54;;;;;;;;;47.25;41.50;;;;;;;;12056867;29;8904;-48
2021/03/28 17:42:58;;;;;;;;;42.75;39.00;;;;;;;;12057793;29;9674;-50
2021/03/28 17:49:00;;;;;;;;;41.75;38.00;;;;;;;;12056590;29;8881;-52
2021/03/28 17:55:07;;;;;;;;;44.00;40.50;;;;;;;;12057419;29;8865;-54
2021/03/28 18:01:31;;;;;;;;;37.25;32.75;;;;;;;;12056360;29;8880;-52
2021/03/28 18:07:38;;;;;;;;;31.00;30.25;;;;;;;;12054009;29;8884;-51
2021/03/28 18:13:45;;;;;;;;;27.75;24.75;;;;;;;;12056010;29;8869;-50
2021/03/28 18:19:46;;;;;;;;;28.00;27.25;;;;;;;;12054437;29;8862;-49
2021/03/28 18:25:48;;;;;;;;;22.50;21.25;;;;;;;;12057205;29;9466;-49
2021/03/28 18:31:59;;;;;;;;;25.75;22.50;;;;;;;;12054017;29;8869;-50
2021/03/28 18:38:03;;;;;;;;;23.50;21.00;;;;;;;;12054600;29;8947;-51
2021/03/28 18:44:11;;;;;;;;;22.00;18.50;;;;;;;;12054267;29;9621;-52
2021/03/28 18:50:20;;;;;;;;;27.75;25.25;;;;;;;;12052897;29;8903;-54
2021/03/28 18:56:24;;;;;;;;;19.50;19.50;;;;;;;;12054817;29;8861;-52
2021/03/28 19:02:43;;;;;;;;;19.50;19.25;;;;;;;;12052350;29;8888;-51
2021/03/28 19:08:48;;;;;;;;;19.50;18.75;;;;;;;;12054419;29;8923;-53
2021/03/28 19:14:52;;;;;;;;;22.00;20.25;;;;;;;;12052948;29;8861;-50
2021/03/28 19:21:08;;;;;;;;;18.50;15.50;;;;;;;;12053212;29;9494;-50
2021/03/28 19:27:10;;;;;;;;;21.75;19.00;;;;;;;;12053014;29;8865;-53
2021/03/28 19:33:30;;;;;;;;;19.75;19.50;;;;;;;;12051766;29;8881;-52
2021/03/28 19:39:31;;;;;;;;;17.00;17.00;;;;;;;;12053357;29;8893;-52
2021/03/28 19:45:46;;;;;;;;;17.75;17.25;;;;;;;;12031056;29;9038;-50
2021/03/28 19:51:56;;;;;;;;;16.25;16.25;;;;;;;;12008479;29;9680;-50
2021/03/28 19:57:58;;;;;;;;;19.00;16.00;;;;;;;;12007673;29;8872;-52
2021/03/28 20:04:14;;;;;;;;;22.75;18.75;;;;;;;;12007255;29;8914;-51
2021/03/28 20:10:16;;;;;;;;;18.50;15.00;;;;;;;;12007605;29;8880;-51
2021/03/28 20:16:24;;;;;;;;;13.75;13.75;;;;;;;;12006485;29;9653;-49
2021/03/28 20:22:25;;;;;;;;;14.50;12.25;;;;;;;;12008485;29;9516;-54
2021/03/28 20:28:26;;;;;;;;;13.25;13.00;;;;;;;;12007308;29;8997;-52
2021/03/28 20:34:36;;;;;;;;;10.50;10.50;;;;;;;;12015384;29;8868;-52
2021/03/28 20:40:40;;;;;;;;;9.75;9.75;;;;;;;;12014553;29;9658;-49
2021/03/28 20:46:49;;;;;;;;;11.75;11.75;;;;;;;;12014657;29;8951;-52
2021/03/28 20:52:57;;;;;;;;;15.50;11.75;;;;;;;;12014606;29;8867;-52
2021/03/28 20:58:59;;;;;;;;;17.50;16.50;;;;;;;;12012977;29;8887;-49
2021/03/28 21:05:01;;;;;;;;;17.25;13.75;;;;;;;;12013940;29;8923;-49
2021/03/28 21:11:02;;;;;;;;;9.50;9.50;;;;;;;;12013256;29;8871;-51
2021/03/28 21:17:05;;;;;;;;;14.75;13.00;;;;;;;;12012755;29;9642;-51
2021/03/28 21:23:07;;;;;;;;;13.25;12.50;;;;;;;;12031857;29;8916;-50
2021/03/28 21:29:10;;;;;;;;;10.25;10.25;;;;;;;;12056419;29;8915;-50
2021/03/28 21:35:14;;;;;;;;;12.00;11.75;;;;;;;;12058171;29;8912;-48
2021/03/28 21:41:23;;;;;;;;;16.50;12.75;;;;;;;;12056494;29;8877;-49
2021/03/28 21:47:25;;;;;;;;;12.50;9.00;;;;;;;;12056473;29;9658;-48
2021/03/28 21:53:27;;;;;;;;;11.00;9.50;;;;;;;;12057018;29;8865;-49
2021/03/28 21:59:29;;;;;;;;;5.75;5.75;;;;;;;;12055429;29;8865;-52
2021/03/28 22:05:30;;;;;;;;;8.25;8.00;;;;;;;;12056420;29;8919;-52
2021/03/28 22:11:36;;;;;;;;;5.00;5.00;;;;;;;;12054877;29;8924;-52
2021/03/28 22:17:38;;;;;;;;;8.00;8.00;;;;;;;;12054925;29;8879;-49
2021/03/28 22:23:42;;;;;;;;;4.00;4.00;;;;;;;;12055988;29;8985;-48
2021/03/28 22:29:44;;;;;;;;;5.75;5.75;;;;;;;;12053800;29;8880;-52
2021/03/28 22:35:51;;;;;;;;;9.25;6.75;;;;;;;;12056489;29;8888;-53
2021/03/28 22:41:55;;;;;;;;;8.25;6.50;;;;;;;;12052110;29;8876;-53
2021/03/28 22:48:02;;;;;;;;;9.25;5.75;;;;;;;;12054650;29;9635;-48
2021/03/28 22:54:05;;;;;;;;;9.00;7.00;;;;;;;;12052075;29;8877;-47
2021/03/28 23:00:16;;;;;;;;;5.75;5.75;;;;;;;;12052524;29;8869;-48
2021/03/28 23:06:18;;;;;;;;;10.00;8.75;;;;;;;;12054617;29;9065;-49
2021/03/28 23:12:21;;;;;;;;;8.50;6.00;;;;;;;;12052435;29;8861;-48
2021/03/28 23:18:32;;;;;;;;;8.25;6.50;;;;;;;;12053834;29;8881;-52
2021/03/28 23:24:36;;;;;;;;;8.00;8.00;;;;;;;;12036149;29;8873;-51
2021/03/28 23:30:45;;;;;;;;;5.25;5.25;;;;;;;;12051939;29;8881;-52
2021/03/28 23:36:46;;;;;;;;;6.00;5.50;;;;;;;;12054059;29;8877;-50
2021/03/28 23:42:51;;;;;;;;;10.50;9.00;;;;;;;;12051962;29;8905;-50
2021/03/28 23:48:56;;;;;;;;;10.75;10.75;;;;;;;;12053862;29;8895;-52
2021/03/28 23:54:59;;;;;;;;;11.25;9.00;;;;;;;;12050362;29;8880;-51
